Terminal Aerodrome Forecast
Issued by NWS

Home | Current Version | Previous Version | Graphics & Text | Print | Product List | Glossary On
Versions: 1 2 3 4 5 6 7 8 9 10 11 12 13 14 15
000
FTUS43 KGRB 181126
TAFMTW
TAF
KMTW 181126Z 1812/1912 29011G15KT P6SM SCT030 BKN040
      TEMPO 1812/1816 SCT018 BKN025
     FM181600 30012G20KT P6SM SCT020 BKN035
     FM182100 29011KT P6SM SCT040 BKN120
     FM190000 29006KT P6SM SCT100
     FM190800 27004KT P6SM SKC=

USA.gov is the U.S. government's official web portal to all federal, state and local government web resources and services.